createdAt,value
2019-01-12T00:01:41.478Z,-1.15
2019-01-12T00:04:13.517Z,-1.24
2019-01-12T00:06:45.702Z,-1.17
2019-01-12T00:09:17.707Z,-1.18
2019-01-12T00:11:49.706Z,-1.24
2019-01-12T00:14:21.703Z,-1.17
2019-01-12T00:16:53.698Z,-1.27
2019-01-12T00:19:25.995Z,-1.25
2019-01-12T00:21:57.944Z,-1.17
2019-01-12T00:24:32.770Z,-1.35
2019-01-12T00:27:04.986Z,-1.16
2019-01-12T00:29:37.017Z,-1.29
2019-01-12T00:32:10.466Z,-1.16
2019-01-12T00:34:42.439Z,-1.08
2019-01-12T00:37:14.705Z,-1.10
2019-01-12T00:39:46.934Z,-1.24
2019-01-12T00:42:19.000Z,-1.16
2019-01-12T00:44:51.250Z,-1.19
2019-01-12T00:47:23.184Z,-1.22
2019-01-12T00:49:55.125Z,-1.09
2019-01-12T00:52:27.469Z,-1.14
2019-01-12T00:54:59.704Z,-1.04
2019-01-12T00:57:31.767Z,-1.04
2019-01-12T01:00:04.413Z,-1.04
2019-01-12T01:02:36.416Z,-1.05
2019-01-12T01:05:08.816Z,-1.18
2019-01-12T01:07:40.903Z,-1.18
2019-01-12T01:10:19.638Z,-1.06
2019-01-12T01:12:51.966Z,-1.14
2019-01-12T01:15:24.035Z,-1.20
2019-01-12T01:17:55.965Z,-1.21
2019-01-12T01:20:27.919Z,-1.03
2019-01-12T01:22:59.907Z,-1.04
2019-01-12T01:25:31.934Z,-1.07
2019-01-12T01:28:04.222Z,-1.00
2019-01-12T01:30:36.168Z,-1.17
2019-01-12T01:33:08.098Z,-1.12
2019-01-12T01:35:40.106Z,-0.98
2019-01-12T01:38:12.122Z,-1.06
2019-01-12T01:40:44.071Z,-1.03
2019-01-12T01:43:15.997Z,-1.13
2019-01-12T01:45:47.939Z,-1.07
2019-01-12T01:48:20.054Z,-0.93
2019-01-12T01:50:51.986Z,-0.93
2019-01-12T01:53:23.928Z,-1.05
2019-01-12T01:55:55.810Z,-1.01
2019-01-12T01:58:28.035Z,-0.99
2019-01-12T02:01:00.013Z,-0.86
2019-01-12T02:03:31.860Z,-0.79
2019-01-12T02:06:03.788Z,-0.85
2019-01-12T02:08:35.712Z,-0.96
2019-01-12T02:11:07.738Z,-1.01
2019-01-12T02:13:39.669Z,-0.79
2019-01-12T02:16:11.604Z,-0.80
2019-01-12T02:18:43.465Z,-0.84
2019-01-12T02:21:15.479Z,-0.78
2019-01-12T02:23:48.341Z,-0.79
2019-01-12T02:26:20.322Z,-0.75
2019-01-12T02:28:52.169Z,-0.79
2019-01-12T02:31:24.108Z,-0.75
2019-01-12T02:33:56.047Z,-0.79
2019-01-12T02:36:28.020Z,-0.74
2019-01-12T02:39:00.103Z,-0.97
2019-01-12T02:41:33.551Z,-0.81
2019-01-12T02:44:05.806Z,-0.71
2019-01-12T02:46:37.725Z,-0.71
2019-01-12T02:49:09.639Z,-0.70
2019-01-12T02:51:41.503Z,-0.69
2019-01-12T02:54:13.299Z,-0.73
2019-01-12T02:56:45.425Z,-0.90
2019-01-12T02:59:17.397Z,-0.78
2019-01-12T03:01:49.302Z,-0.78
2019-01-12T03:04:21.235Z,-0.73
2019-01-12T03:06:53.513Z,-0.73
2019-01-12T03:09:25.440Z,-0.72
2019-01-12T03:11:57.394Z,-0.68
2019-01-12T03:14:29.319Z,-0.65
2019-01-12T03:17:01.497Z,-0.74
2019-01-12T03:19:33.357Z,-0.63
2019-01-12T03:22:05.375Z,-0.60
2019-01-12T03:24:37.395Z,-0.71
2019-01-12T03:27:10.336Z,-0.74
2019-01-12T03:29:42.187Z,-0.71
2019-01-12T03:32:14.122Z,-0.66
2019-01-12T03:34:46.030Z,-0.65
2019-01-12T03:37:17.970Z,-0.84
2019-01-12T03:39:49.822Z,-0.70
2019-01-12T03:42:21.612Z,-0.60
2019-01-12T03:44:53.550Z,-0.59
2019-01-12T03:47:25.482Z,-0.57
2019-01-12T03:49:57.382Z,-0.52
2019-01-12T03:52:29.342Z,-0.55
2019-01-12T03:55:01.238Z,-0.62
2019-01-12T03:57:33.261Z,-0.61
2019-01-12T04:00:09.431Z,-0.54
2019-01-12T04:02:41.352Z,-0.53
2019-01-12T04:05:13.226Z,-0.56
2019-01-12T04:07:45.124Z,-0.60
2019-01-12T04:10:17.013Z,-0.57
2019-01-12T04:12:48.911Z,-0.69
2019-01-12T04:15:20.803Z,-0.54
2019-01-12T04:17:52.554Z,-0.70
2019-01-12T04:20:24.437Z,-0.59
2019-01-12T04:22:56.514Z,-0.56
2019-01-12T04:25:33.652Z,-0.59
2019-01-12T04:28:01.881Z,-0.71
2019-01-12T04:30:33.701Z,-0.57
2019-01-12T04:33:05.594Z,-0.57
2019-01-12T04:35:37.661Z,-0.49
2019-01-12T04:38:10.140Z,-0.43
2019-01-12T04:40:41.885Z,-0.49
2019-01-12T04:43:13.772Z,-0.49
2019-01-12T04:45:45.665Z,-0.49
2019-01-12T04:48:17.489Z,-0.62
2019-01-12T04:50:49.299Z,-0.58
2019-01-12T04:53:21.225Z,-0.51
2019-01-12T04:55:53.123Z,-0.58
2019-01-12T04:58:24.865Z,-0.65
2019-01-12T05:00:56.673Z,-0.51
2019-01-12T05:03:28.463Z,-0.45
2019-01-12T05:06:00.275Z,-0.46
2019-01-12T05:08:32.052Z,-0.40
2019-01-12T05:11:03.984Z,-0.39
2019-01-12T05:13:35.803Z,-0.48
2019-01-12T05:16:07.611Z,-0.47
2019-01-12T05:18:39.433Z,-0.39
2019-01-12T05:21:11.239Z,-0.51
2019-01-12T05:23:43.062Z,-0.41
2019-01-12T05:26:14.877Z,-0.48
2019-01-12T05:28:46.623Z,-0.38
2019-01-12T05:31:18.576Z,-0.37
2019-01-12T05:33:50.316Z,-0.43
2019-01-12T05:36:22.121Z,-0.38
2019-01-12T05:38:53.909Z,-0.44
2019-01-12T05:41:25.643Z,-0.38
2019-01-12T05:43:57.397Z,-0.40
2019-01-12T05:46:29.128Z,-0.37
2019-01-12T05:49:01.261Z,-0.38
2019-01-12T05:51:33.073Z,-0.49
2019-01-12T05:54:04.992Z,-0.49
2019-01-12T05:56:37.140Z,-0.48
2019-01-12T05:59:10.373Z,-0.56
2019-01-12T06:01:42.115Z,-0.39
2019-01-12T06:04:13.881Z,-0.52
2019-01-12T06:06:45.726Z,-0.33
2019-01-12T06:09:18.520Z,-0.35
2019-01-12T06:11:50.340Z,-0.42
2019-01-12T06:14:22.767Z,-0.38
2019-01-12T06:16:54.498Z,-0.42
2019-01-12T06:19:26.307Z,-0.30
2019-01-12T06:21:58.122Z,-0.32
2019-01-12T06:24:30.082Z,-0.25
2019-01-12T06:27:01.826Z,-0.38
2019-01-12T06:29:33.956Z,-0.31
2019-01-12T06:32:06.026Z,-0.39
2019-01-12T06:34:37.925Z,-0.32
2019-01-12T06:37:09.942Z,-0.32
2019-01-12T06:39:41.885Z,-0.55
2019-01-12T06:42:13.690Z,-0.30
2019-01-12T06:44:45.671Z,-0.27
2019-01-12T06:47:17.662Z,-0.46
2019-01-12T06:49:49.546Z,-0.30
2019-01-12T06:52:21.615Z,-0.45
2019-01-12T06:54:53.467Z,-0.37
2019-01-12T06:57:25.268Z,-0.46
2019-01-12T06:59:57.209Z,-0.29
2019-01-12T07:02:30.143Z,-0.40
2019-01-12T07:05:01.919Z,-0.24
2019-01-12T07:07:33.666Z,-0.21
2019-01-12T07:10:07.436Z,-0.32
2019-01-12T07:12:39.351Z,-0.27
2019-01-12T07:15:12.861Z,-0.30
2019-01-12T07:17:44.820Z,-0.27
2019-01-12T07:20:18.154Z,-0.45
2019-01-12T07:22:49.909Z,-0.30
2019-01-12T07:25:21.687Z,-0.32
2019-01-12T07:27:53.526Z,-0.45
2019-01-12T07:30:25.552Z,-0.57
2019-01-12T07:32:57.450Z,-0.51
2019-01-12T07:35:29.210Z,-0.37
2019-01-12T07:38:00.969Z,-0.45
2019-01-12T07:40:32.830Z,-0.52
2019-01-12T07:43:04.654Z,-0.32
2019-01-12T07:45:36.640Z,-0.41
2019-01-12T07:48:09.954Z,-0.45
2019-01-12T07:50:41.797Z,-0.49
2019-01-12T07:53:13.618Z,-0.35
2019-01-12T07:55:45.811Z,-0.43
2019-01-12T07:58:17.557Z,-0.41
2019-01-12T08:00:49.326Z,-0.43
2019-01-12T08:03:21.154Z,-0.34
2019-01-12T08:05:52.972Z,-0.34
2019-01-12T08:08:24.748Z,-0.21
2019-01-12T08:10:56.523Z,-0.16
2019-01-12T08:13:28.483Z,-0.16
2019-01-12T08:16:00.278Z,-0.22
2019-01-12T08:18:32.189Z,-0.10
2019-01-12T08:21:05.161Z,-0.19
2019-01-12T08:23:36.986Z,-0.14
2019-01-12T08:26:09.643Z,-0.01
2019-01-12T08:28:41.649Z,-0.15
2019-01-12T08:31:13.496Z,-0.04
2019-01-12T08:33:45.314Z,-0.05
2019-01-12T08:36:17.216Z,-0.05
2019-01-12T08:38:49.105Z,-0.14
2019-01-12T08:41:22.426Z,-0.21
2019-01-12T08:43:55.247Z,-0.21
2019-01-12T08:46:27.002Z,-0.09
2019-01-12T08:48:58.821Z,-0.13
2019-01-12T08:51:30.678Z,-0.06
2019-01-12T08:54:02.508Z,-0.11
2019-01-12T08:56:38.250Z,-0.09
2019-01-12T08:59:08.169Z,-0.08
2019-01-12T09:01:39.988Z,-0.06
2019-01-12T09:04:11.871Z,-0.04
2019-01-12T09:06:43.630Z,-0.21
2019-01-12T09:09:15.450Z,-0.10
2019-01-12T09:11:47.213Z,-0.05
2019-01-12T09:14:19.036Z,-0.03
2019-01-12T09:16:50.855Z,-0.01
2019-01-12T09:19:22.683Z,-0.11
2019-01-12T09:21:54.444Z,-0.09
2019-01-12T09:24:26.253Z,0.00
2019-01-12T09:26:58.001Z,-0.04
2019-01-12T09:29:29.845Z,-0.02
2019-01-12T09:32:01.733Z,-0.08
2019-01-12T09:34:33.535Z,0.05
2019-01-12T09:37:05.422Z,0.04
2019-01-12T09:39:37.240Z,-0.02
2019-01-12T09:42:09.985Z,0.07
2019-01-12T09:44:42.686Z,0.12
2019-01-12T09:47:14.435Z,0.04
2019-01-12T09:49:46.316Z,0.02
2019-01-12T09:52:18.076Z,-0.05
2019-01-12T09:54:49.892Z,0.05
2019-01-12T09:57:21.776Z,0.00
2019-01-12T09:59:53.572Z,-0.04
2019-01-12T10:02:25.628Z,0.12
2019-01-12T10:04:57.608Z,0.09
2019-01-12T10:07:29.944Z,0.14
2019-01-12T10:10:01.744Z,0.04
2019-01-12T10:12:33.629Z,0.09
2019-01-12T10:15:06.625Z,0.10
2019-01-12T10:17:38.428Z,0.11
2019-01-12T10:20:14.617Z,0.05
2019-01-12T10:22:46.752Z,-0.15
2019-01-12T10:25:18.959Z,0.08
2019-01-12T10:27:50.924Z,-0.09
2019-01-12T10:30:25.502Z,0.06
2019-01-12T10:32:57.426Z,0.00
2019-01-12T10:35:29.324Z,0.07
2019-01-12T10:38:01.141Z,0.17
2019-01-12T10:40:33.020Z,0.08
2019-01-12T10:43:04.911Z,0.02
2019-01-12T10:45:36.751Z,0.11
2019-01-12T10:48:09.625Z,0.15
2019-01-12T10:50:41.845Z,0.09
2019-01-12T10:53:13.792Z,0.20
2019-01-12T10:55:46.100Z,0.04
2019-01-12T10:58:18.003Z,0.22
2019-01-12T11:00:50.237Z,0.24
2019-01-12T11:03:22.549Z,0.17
2019-01-12T11:05:54.458Z,-0.02
2019-01-12T11:08:29.126Z,0.16
2019-01-12T11:11:01.077Z,0.27
2019-01-12T11:13:33.003Z,0.16
2019-01-12T11:16:04.945Z,0.03
2019-01-12T11:18:36.789Z,0.19
2019-01-12T11:21:09.920Z,0.22
2019-01-12T11:23:41.920Z,0.27
2019-01-12T11:26:13.816Z,0.20
2019-01-12T11:28:45.787Z,0.26
2019-01-12T11:31:19.913Z,0.26
2019-01-12T11:33:51.862Z,0.28
2019-01-12T11:36:23.768Z,0.36
2019-01-12T11:38:56.467Z,0.30
2019-01-12T11:41:28.206Z,0.36
2019-01-12T11:44:00.028Z,0.39
2019-01-12T11:46:31.951Z,0.47
2019-01-12T11:49:03.707Z,0.45
2019-01-12T11:51:35.624Z,0.39
2019-01-12T11:54:07.532Z,0.35
2019-01-12T11:56:39.266Z,0.44
2019-01-12T11:59:11.287Z,0.45
2019-01-12T12:01:43.179Z,0.45
2019-01-12T12:04:15.080Z,0.47
2019-01-12T12:06:46.910Z,0.49
2019-01-12T12:09:18.769Z,0.54
2019-01-12T12:11:50.549Z,0.55
2019-01-12T12:14:22.551Z,0.47
2019-01-12T12:16:54.393Z,0.63
2019-01-12T12:19:26.228Z,0.60
2019-01-12T12:21:58.063Z,0.52
2019-01-12T12:24:29.976Z,0.57
2019-01-12T12:27:01.809Z,0.63
2019-01-12T12:29:34.684Z,0.47
2019-01-12T12:32:06.626Z,0.53
2019-01-12T12:34:38.664Z,0.55
2019-01-12T12:37:10.478Z,0.56
2019-01-12T12:39:42.320Z,0.50
2019-01-12T12:42:14.061Z,0.59
2019-01-12T12:44:45.825Z,0.61
2019-01-12T12:47:17.805Z,0.52
2019-01-12T12:49:49.555Z,0.55
2019-01-12T12:52:21.435Z,0.42
2019-01-12T12:54:53.290Z,0.34
2019-01-12T12:57:25.108Z,0.45
2019-01-12T12:59:57.012Z,0.50
2019-01-12T13:02:28.901Z,0.51
2019-01-12T13:05:00.757Z,0.54
2019-01-12T13:07:32.587Z,0.44
2019-01-12T13:10:05.853Z,0.58
2019-01-12T13:12:37.779Z,0.54
2019-01-12T13:15:10.757Z,0.51
2019-01-12T13:17:42.727Z,0.44
2019-01-12T13:20:17.399Z,0.52
2019-01-12T13:22:49.561Z,0.42
2019-01-12T13:25:21.567Z,0.55
2019-01-12T13:27:53.456Z,0.57
2019-01-12T13:30:27.248Z,0.63
2019-01-12T13:32:59.181Z,0.42
2019-01-12T13:35:31.147Z,0.53
2019-01-12T13:38:03.026Z,0.51
2019-01-12T13:40:34.865Z,0.59
2019-01-12T13:43:06.918Z,0.54
2019-01-12T13:45:38.850Z,0.53
2019-01-12T13:48:11.031Z,0.64
2019-01-12T13:50:43.129Z,0.56
2019-01-12T13:53:14.884Z,0.51
2019-01-12T13:55:46.695Z,0.62
2019-01-12T13:58:18.536Z,0.58
2019-01-12T14:00:50.442Z,0.57
2019-01-12T14:03:22.420Z,0.47
2019-01-12T14:05:54.285Z,0.45
2019-01-12T14:08:26.199Z,0.58
2019-01-12T14:10:58.105Z,0.57
2019-01-12T14:13:29.945Z,0.62
2019-01-12T14:16:01.927Z,0.59
2019-01-12T14:18:33.823Z,0.61
2019-01-12T14:21:05.719Z,0.60
2019-01-12T14:23:37.611Z,0.62
2019-01-12T14:26:09.643Z,0.46
2019-01-12T14:28:41.730Z,0.56
2019-01-12T14:31:13.658Z,0.54
2019-01-12T14:33:45.487Z,0.50
2019-01-12T14:36:17.360Z,0.54
2019-01-12T14:38:49.294Z,0.59
2019-01-12T14:41:21.209Z,0.62
2019-01-12T14:43:53.124Z,0.59
2019-01-12T14:46:25.127Z,0.64
2019-01-12T14:48:56.950Z,0.66
2019-01-12T14:51:28.853Z,0.53
2019-01-12T14:54:00.702Z,0.59
2019-01-12T14:56:32.633Z,0.54
2019-01-12T14:59:04.460Z,0.63
2019-01-12T15:01:36.404Z,0.59
2019-01-12T15:04:09.404Z,0.50
2019-01-12T15:06:41.325Z,0.64
2019-01-12T15:09:13.546Z,0.68
2019-01-12T15:11:45.429Z,0.64
2019-01-12T15:14:17.572Z,0.65
2019-01-12T15:16:49.440Z,0.68
2019-01-12T15:19:21.266Z,0.48
2019-01-12T15:21:53.170Z,0.60
2019-01-12T15:24:24.936Z,0.45
2019-01-12T15:26:56.846Z,0.49
2019-01-12T15:29:28.815Z,0.61
2019-01-12T15:32:00.698Z,0.65
2019-01-12T15:34:32.528Z,0.66
2019-01-12T15:37:04.496Z,0.57
2019-01-12T15:39:36.430Z,0.55
2019-01-12T15:42:09.602Z,0.57
2019-01-12T15:44:41.421Z,0.56
2019-01-12T15:47:13.472Z,0.54
2019-01-12T15:49:45.331Z,0.54
2019-01-12T15:52:17.180Z,0.52
2019-01-12T15:54:49.011Z,0.52
2019-01-12T15:57:21.129Z,0.50
2019-01-12T15:59:53.031Z,0.47
2019-01-12T16:02:25.116Z,0.45
2019-01-12T16:04:57.008Z,0.47
2019-01-12T16:07:28.799Z,0.44
2019-01-12T16:10:00.679Z,0.56
2019-01-12T16:12:34.626Z,0.37
2019-01-12T16:15:10.787Z,0.58
2019-01-12T16:17:42.910Z,0.64
2019-01-12T16:20:45.279Z,0.56
2019-01-12T16:23:17.128Z,0.55
2019-01-12T16:25:49.042Z,0.60
2019-01-12T16:28:23.350Z,0.60
2019-01-12T16:30:54.339Z,0.53
2019-01-12T16:33:26.222Z,0.57
2019-01-12T16:35:58.039Z,0.46
2019-01-12T16:38:30.113Z,0.55
2019-01-12T16:41:01.999Z,0.39
2019-01-12T16:43:33.859Z,0.43
2019-01-12T16:46:05.903Z,0.46
2019-01-12T16:48:37.912Z,0.25
2019-01-12T16:51:10.470Z,0.35
2019-01-12T16:53:42.309Z,0.30
2019-01-12T16:56:14.321Z,0.15
2019-01-12T16:58:46.308Z,0.29
2019-01-12T17:01:18.158Z,0.25
2019-01-12T17:03:50.183Z,0.17
2019-01-12T17:06:22.161Z,0.11
2019-01-12T17:08:54.095Z,-0.09
2019-01-12T17:11:25.963Z,0.09
2019-01-12T17:13:57.831Z,-0.15
2019-01-12T17:16:29.690Z,0.06
2019-01-12T17:19:01.743Z,-0.07
2019-01-12T17:21:33.643Z,-0.24
2019-01-12T17:24:05.727Z,-0.20
2019-01-12T17:26:37.745Z,-0.21
2019-01-12T17:29:10.123Z,-0.10
2019-01-12T17:31:42.104Z,-0.08
2019-01-12T17:34:14.083Z,-0.12
2019-01-12T17:36:46.034Z,-0.13
2019-01-12T17:39:18.051Z,-0.14
2019-01-12T17:41:50.222Z,-0.24
2019-01-12T17:44:22.309Z,-0.15
2019-01-12T17:46:54.289Z,-0.18
2019-01-12T17:49:27.826Z,-0.21
2019-01-12T17:52:02.395Z,-0.31
2019-01-12T17:54:34.385Z,-0.22
2019-01-12T17:57:06.466Z,-0.44
2019-01-12T17:59:38.366Z,-0.25
2019-01-12T18:02:10.289Z,-0.43
2019-01-12T18:04:42.188Z,-0.36
2019-01-12T18:07:14.176Z,-0.29
2019-01-12T18:09:46.338Z,-0.23
2019-01-12T18:12:18.359Z,-0.22
2019-01-12T18:14:50.450Z,-0.30
2019-01-12T18:17:22.343Z,-0.39
2019-01-12T18:19:54.156Z,-0.36
2019-01-12T18:22:26.234Z,-0.24
2019-01-12T18:24:58.052Z,-0.23
2019-01-12T18:27:29.978Z,-0.25
2019-01-12T18:30:01.978Z,-0.21
2019-01-12T18:32:34.978Z,-0.35
2019-01-12T18:35:07.705Z,-0.31
2019-01-12T18:37:39.638Z,-0.27
2019-01-12T18:40:14.717Z,-0.33
2019-01-12T18:42:46.787Z,-0.23
2019-01-12T18:45:19.314Z,-0.22
2019-01-12T18:47:52.669Z,-0.42
2019-01-12T18:50:26.761Z,-0.32
2019-01-12T18:52:58.833Z,-0.23
2019-01-12T18:55:31.131Z,-0.32
2019-01-12T18:58:03.175Z,-0.18
2019-01-12T19:00:36.163Z,-0.41
2019-01-12T19:03:08.233Z,-0.28
2019-01-12T19:05:40.239Z,-0.42
2019-01-12T19:08:12.345Z,-0.26
2019-01-12T19:10:44.500Z,-0.41
2019-01-12T19:13:16.591Z,-0.41
2019-01-12T19:15:48.507Z,-0.43
2019-01-12T19:18:20.597Z,-0.32
2019-01-12T19:20:52.428Z,-0.26
2019-01-12T19:23:24.631Z,-0.41
2019-01-12T19:25:56.454Z,-0.35
2019-01-12T19:28:28.316Z,-0.48
2019-01-12T19:31:00.088Z,-0.51
2019-01-12T19:33:32.062Z,-0.40
2019-01-12T19:36:03.965Z,-0.34
2019-01-12T19:38:36.862Z,-0.36
2019-01-12T19:41:09.991Z,-0.62
2019-01-12T19:43:41.968Z,-0.39
2019-01-12T19:46:14.704Z,-0.37
2019-01-12T19:48:46.470Z,-0.52
2019-01-12T19:51:18.304Z,-0.33
2019-01-12T19:53:50.156Z,-0.33
2019-01-12T19:56:22.174Z,-0.39
2019-01-12T19:58:53.940Z,-0.34
2019-01-12T20:01:25.817Z,-0.51
2019-01-12T20:03:57.651Z,-0.54
2019-01-12T20:06:29.533Z,-0.49
2019-01-12T20:09:01.653Z,-0.61
2019-01-12T20:11:34.452Z,-0.69
2019-01-12T20:14:06.799Z,-0.48
2019-01-12T20:16:38.977Z,-0.46
2019-01-12T20:19:10.832Z,-0.57
2019-01-12T20:21:42.766Z,-0.46
2019-01-12T20:24:14.683Z,-0.56
2019-01-12T20:26:46.450Z,-0.62
2019-01-12T20:29:21.260Z,-0.50
2019-01-12T20:32:36.704Z,-0.45
2019-01-12T20:35:48.674Z,-0.63
2019-01-12T20:39:26.865Z,-0.56
2019-01-12T20:42:38.107Z,-0.60
2019-01-12T20:46:04.889Z,-0.51
2019-01-12T20:49:22.971Z,-0.45
2019-01-12T20:53:00.874Z,-0.51
2019-01-12T20:56:19.180Z,-0.44
2019-01-12T20:59:51.548Z,-0.52
2019-01-12T21:03:17.540Z,-0.57
2019-01-12T21:06:33.715Z,-0.40
2019-01-12T21:09:52.714Z,-0.37
2019-01-12T21:13:35.685Z,-0.31
2019-01-12T21:16:14.616Z,-0.31
2019-01-12T21:18:46.465Z,-0.39
2019-01-12T21:21:18.464Z,-0.44
2019-01-12T21:23:50.675Z,-0.39
2019-01-12T21:26:22.646Z,-0.32
2019-01-12T21:28:54.461Z,-0.38
2019-01-12T21:31:26.452Z,-0.42
2019-01-12T21:33:58.349Z,-0.47
2019-01-12T21:36:30.318Z,-0.44
2019-01-12T21:39:02.239Z,-0.35
2019-01-12T21:41:35.112Z,-0.42
2019-01-12T21:44:07.034Z,-0.43
2019-01-12T21:46:39.081Z,-0.51
2019-01-12T21:49:10.919Z,-0.29
2019-01-12T21:51:42.942Z,-0.33
2019-01-12T21:54:14.743Z,-0.22
2019-01-12T21:56:46.634Z,-0.29
2019-01-12T21:59:18.394Z,-0.23
2019-01-12T22:01:50.445Z,-0.19
2019-01-12T22:04:22.314Z,-0.32
2019-01-12T22:06:54.175Z,-0.29
2019-01-12T22:09:26.355Z,-0.34
2019-01-12T22:11:58.187Z,-0.17
2019-01-12T22:14:30.105Z,-0.27
2019-01-12T22:17:02.056Z,-0.11
2019-01-12T22:19:33.970Z,-0.06
2019-01-12T22:22:05.792Z,-0.19
2019-01-12T22:24:37.680Z,-0.06
2019-01-12T22:27:09.544Z,0.01
2019-01-12T22:29:41.403Z,-0.02
2019-01-12T22:32:13.246Z,0.01
2019-01-12T22:34:45.068Z,-0.04
2019-01-12T22:37:17.075Z,-0.04
2019-01-12T22:39:48.958Z,-0.02
2019-01-12T22:42:20.717Z,-0.07
2019-01-12T22:44:52.452Z,-0.01
2019-01-12T22:47:24.539Z,-0.02
2019-01-12T22:49:56.285Z,0.06
2019-01-12T22:52:28.110Z,0.09
2019-01-12T22:54:59.868Z,0.08
2019-01-12T22:57:31.791Z,0.06
2019-01-12T23:00:05.545Z,0.08
2019-01-12T23:02:37.420Z,0.05
2019-01-12T23:05:09.617Z,0.10
2019-01-12T23:07:41.475Z,0.15
2019-01-12T23:10:13.589Z,0.07
2019-01-12T23:12:45.413Z,0.13
2019-01-12T23:15:17.465Z,0.06
2019-01-12T23:17:49.331Z,0.19
2019-01-12T23:20:21.336Z,0.18
2019-01-12T23:22:53.150Z,0.24
2019-01-12T23:25:25.027Z,0.25
2019-01-12T23:27:56.784Z,0.26
2019-01-12T23:30:29.064Z,0.24
2019-01-12T23:33:00.833Z,0.30
2019-01-12T23:35:32.811Z,0.25
2019-01-12T23:38:06.031Z,0.33
2019-01-12T23:40:38.258Z,0.29
2019-01-12T23:43:10.273Z,0.36
2019-01-12T23:45:42.127Z,0.32
2019-01-12T23:48:14.207Z,0.38
2019-01-12T23:50:46.038Z,0.37
2019-01-12T23:53:17.883Z,0.48
2019-01-12T23:55:49.648Z,0.50
2019-01-12T23:58:21.404Z,0.43
